sensor_id;sensor_type;location;lat;lon;timestamp;pressure;altitude;pressure_sealevel;temperature;humidity
47260;BME280;32999;52.412;4.890;2023-03-21T00:04:01;101647.56;;;10.34;100.00
47260;BME280;32999;52.412;4.890;2023-03-21T00:09:02;101637.38;;;10.29;100.00
47260;BME280;32999;52.412;4.890;2023-03-21T00:14:05;101642.56;;;10.31;100.00
47260;BME280;32999;52.412;4.890;2023-03-21T00:19:07;101640.88;;;10.30;100.00
47260;BME280;32999;52.412;4.890;2023-03-21T00:24:09;101641.22;;;10.35;100.00
47260;BME280;32999;52.412;4.890;2023-03-21T00:29:12;101613.50;;;10.36;100.00
47260;BME280;32999;52.412;4.890;2023-03-21T00:34:14;101633.91;;;10.61;100.00
47260;BME280;32999;52.412;4.890;2023-03-21T00:39:15;101637.06;;;10.32;100.00
47260;BME280;32999;52.412;4.890;2023-03-21T00:44:18;101620.03;;;10.33;100.00
47260;BME280;32999;52.412;4.890;2023-03-21T00:49:20;101624.53;;;10.49;100.00
47260;BME280;32999;52.412;4.890;2023-03-21T00:54:21;101614.16;;;10.46;100.00
47260;BME280;32999;52.412;4.890;2023-03-21T00:59:24;101610.50;;;10.31;100.00
47260;BME280;32999;52.412;4.890;2023-03-21T01:04:26;101598.78;;;10.23;100.00
47260;BME280;32999;52.412;4.890;2023-03-21T01:09:28;101594.97;;;10.34;100.00
47260;BME280;32999;52.412;4.890;2023-03-21T01:14:31;101586.78;;;10.36;100.00
47260;BME280;32999;52.412;4.890;2023-03-21T01:19:32;101585.13;;;10.59;100.00
47260;BME280;32999;52.412;4.890;2023-03-21T01:24:34;101578.75;;;10.44;100.00
47260;BME280;32999;52.412;4.890;2023-03-21T01:29:37;101573.09;;;10.47;100.00
47260;BME280;32999;52.412;4.890;2023-03-21T01:34:39;101564.75;;;10.58;100.00
47260;BME280;32999;52.412;4.890;2023-03-21T01:39:41;101562.72;;;10.60;100.00
47260;BME280;32999;52.412;4.890;2023-03-21T01:44:54;101550.16;;;10.69;100.00
47260;BME280;32999;52.412;4.890;2023-03-21T01:49:56;101550.16;;;10.69;100.00
47260;BME280;32999;52.412;4.890;2023-03-21T01:54:58;101558.03;;;10.70;100.00
47260;BME280;32999;52.412;4.890;2023-03-21T02:00:03;101544.97;;;10.83;100.00
47260;BME280;32999;52.412;4.890;2023-03-21T02:05:11;101549.31;;;10.84;100.00
47260;BME280;32999;52.412;4.890;2023-03-21T02:10:12;101542.31;;;10.67;100.00
47260;BME280;32999;52.412;4.890;2023-03-21T02:15:16;101533.63;;;10.73;100.00
47260;BME280;32999;52.412;4.890;2023-03-21T02:20:22;101524.41;;;10.84;100.00
47260;BME280;32999;52.412;4.890;2023-03-21T02:25:37;101522.94;;;10.65;100.00
47260;BME280;32999;52.412;4.890;2023-03-21T02:36:16;101510.94;;;10.61;100.00
47260;BME280;32999;52.412;4.890;2023-03-21T02:41:25;101507.44;;;10.52;100.00
47260;BME280;32999;52.412;4.890;2023-03-21T02:46:30;101506.28;;;10.47;100.00
47260;BME280;32999;52.412;4.890;2023-03-21T02:51:34;101493.41;;;10.59;100.00
47260;BME280;32999;52.412;4.890;2023-03-21T02:56:39;101486.84;;;10.69;100.00
47260;BME280;32999;52.412;4.890;2023-03-21T03:01:42;101485.50;;;10.81;100.00
47260;BME280;32999;52.412;4.890;2023-03-21T03:06:45;101477.69;;;10.64;100.00
47260;BME280;32999;52.412;4.890;2023-03-21T03:11:52;101484.88;;;10.63;100.00
47260;BME280;32999;52.412;4.890;2023-03-21T03:17:00;101473.31;;;10.71;100.00
47260;BME280;32999;52.412;4.890;2023-03-21T03:22:08;101469.84;;;10.62;100.00
47260;BME280;32999;52.412;4.890;2023-03-21T03:27:12;101465.19;;;10.56;100.00
47260;BME280;32999;52.412;4.890;2023-03-21T03:32:17;101474.19;;;10.55;100.00
47260;BME280;32999;52.412;4.890;2023-03-21T03:37:20;101479.38;;;10.56;100.00
47260;BME280;32999;52.412;4.890;2023-03-21T03:42:27;101468.84;;;10.55;100.00
47260;BME280;32999;52.412;4.890;2023-03-21T03:47:32;101464.13;;;10.73;100.00
47260;BME280;32999;52.412;4.890;2023-03-21T03:52:38;101469.13;;;10.76;100.00
47260;BME280;32999;52.412;4.890;2023-03-21T03:57:42;101463.09;;;10.74;100.00
47260;BME280;32999;52.412;4.890;2023-03-21T04:02:44;101457.41;;;10.77;100.00
47260;BME280;32999;52.412;4.890;2023-03-21T04:07:46;101450.56;;;10.75;100.00
47260;BME280;32999;52.412;4.890;2023-03-21T04:12:51;101456.66;;;10.44;100.00
47260;BME280;32999;52.412;4.890;2023-03-21T04:17:52;101450.50;;;10.44;100.00
47260;BME280;32999;52.412;4.890;2023-03-21T04:22:55;101450.00;;;10.40;100.00
47260;BME280;32999;52.412;4.890;2023-03-21T04:27:58;101444.47;;;10.50;100.00
47260;BME280;32999;52.412;4.890;2023-03-21T04:32:59;101417.09;;;10.15;100.00
47260;BME280;32999;52.412;4.890;2023-03-21T04:38:01;101447.88;;;10.19;100.00
47260;BME280;32999;52.412;4.890;2023-03-21T04:43:03;101445.84;;;10.21;100.00
47260;BME280;32999;52.412;4.890;2023-03-21T04:48:05;101440.13;;;10.41;100.00
47260;BME280;32999;52.412;4.890;2023-03-21T04:53:06;101436.16;;;10.37;100.00
47260;BME280;32999;52.412;4.890;2023-03-21T04:58:09;101442.84;;;10.33;100.00
47260;BME280;32999;52.412;4.890;2023-03-21T05:03:11;101428.97;;;10.37;100.00
47260;BME280;32999;52.412;4.890;2023-03-21T05:08:18;101432.50;;;10.38;100.00
47260;BME280;32999;52.412;4.890;2023-03-21T05:13:21;101433.66;;;10.35;100.00
47260;BME280;32999;52.412;4.890;2023-03-21T05:18:23;101432.66;;;10.28;100.00
47260;BME280;32999;52.412;4.890;2023-03-21T05:23:25;101427.66;;;10.09;100.00
47260;BME280;32999;52.412;4.890;2023-03-21T05:28:32;101432.50;;;9.97;100.00
47260;BME280;32999;52.412;4.890;2023-03-21T05:33:35;101430.84;;;10.04;100.00
47260;BME280;32999;52.412;4.890;2023-03-21T05:38:37;101426.66;;;10.02;100.00
47260;BME280;32999;52.412;4.890;2023-03-21T05:43:43;101435.16;;;10.21;100.00
47260;BME280;32999;52.412;4.890;2023-03-21T05:48:44;101422.66;;;10.30;100.00
47260;BME280;32999;52.412;4.890;2023-03-21T05:53:46;101434.84;;;10.25;100.00
47260;BME280;32999;52.412;4.890;2023-03-21T05:58:50;101425.16;;;10.32;100.00
47260;BME280;32999;52.412;4.890;2023-03-21T06:03:55;101428.78;;;10.47;100.00
47260;BME280;32999;52.412;4.890;2023-03-21T06:08:56;101425.44;;;10.45;100.00
47260;BME280;32999;52.412;4.890;2023-03-21T06:13:59;101422.09;;;10.43;100.00
47260;BME280;32999;52.412;4.890;2023-03-21T06:19:01;101430.78;;;10.45;100.00
47260;BME280;32999;52.412;4.890;2023-03-21T06:24:02;101427.78;;;10.48;100.00
47260;BME280;32999;52.412;4.890;2023-03-21T06:29:05;101431.50;;;10.39;100.00
47260;BME280;32999;52.412;4.890;2023-03-21T06:34:07;101435.50;;;10.35;100.00
47260;BME280;32999;52.412;4.890;2023-03-21T06:39:09;101431.50;;;10.39;100.00
47260;BME280;32999;52.412;4.890;2023-03-21T06:44:12;101427.66;;;10.33;100.00
47260;BME280;32999;52.412;4.890;2023-03-21T06:49:14;101436.16;;;10.29;100.00
47260;BME280;32999;52.412;4.890;2023-03-21T06:54:15;101424.47;;;10.38;100.00
47260;BME280;32999;52.412;4.890;2023-03-21T06:59:19;101420.44;;;10.42;100.00
47260;BME280;32999;52.412;4.890;2023-03-21T07:04:21;101427.31;;;10.04;100.00
47260;BME280;32999;52.412;4.890;2023-03-21T07:09:23;101422.16;;;10.10;100.00
47260;BME280;32999;52.412;4.890;2023-03-21T07:14:29;101418.81;;;10.08;100.00
47260;BME280;32999;52.412;4.890;2023-03-21T07:19:31;101423.31;;;9.92;100.00
47260;BME280;32999;52.412;4.890;2023-03-21T07:24:32;101413.81;;;10.21;100.00
47260;BME280;32999;52.412;4.890;2023-03-21T07:29:35;101411.31;;;9.96;100.00
47260;BME280;32999;52.412;4.890;2023-03-21T07:34:37;101403.81;;;9.83;100.00
47260;BME280;32999;52.412;4.890;2023-03-21T07:39:38;101407.47;;;10.06;100.00
47260;BME280;32999;52.412;4.890;2023-03-21T07:44:42;101400.66;;;9.79;100.00
47260;BME280;32999;52.412;4.890;2023-03-21T07:49:43;101396.09;;;10.12;100.00
47260;BME280;32999;52.412;4.890;2023-03-21T07:54:45;101403.13;;;10.05;100.00
47260;BME280;32999;52.412;4.890;2023-03-21T07:59:48;101384.94;;;10.09;100.00
47260;BME280;32999;52.412;4.890;2023-03-21T08:04:50;101380.75;;;10.14;100.00
47260;BME280;32999;52.412;4.890;2023-03-21T08:09:51;101381.09;;;10.03;100.00
47260;BME280;32999;52.412;4.890;2023-03-21T08:14:54;101382.09;;;9.94;100.00
47260;BME280;32999;52.412;4.890;2023-03-21T08:19:56;101338.75;;;9.76;100.00
47260;BME280;32999;52.412;4.890;2023-03-21T08:24:57;101359.00;;;10.17;100.00
47260;BME280;32999;52.412;4.890;2023-03-21T08:30:00;101352.72;;;10.02;100.00
47260;BME280;32999;52.412;4.890;2023-03-21T08:35:02;101350.38;;;9.99;100.00
47260;BME280;32999;52.412;4.890;2023-03-21T08:40:06;101346.53;;;10.02;100.00
47260;BME280;32999;52.412;4.890;2023-03-21T08:45:12;101342.16;;;10.17;100.00
47260;BME280;32999;52.412;4.890;2023-03-21T08:50:15;101344.31;;;10.38;100.00
47260;BME280;32999;52.412;4.890;2023-03-21T08:55:17;101339.88;;;10.61;100.00
47260;BME280;32999;52.412;4.890;2023-03-21T09:00:20;101340.22;;;10.58;100.00
47260;BME280;32999;52.412;4.890;2023-03-21T09:05:22;101342.06;;;10.57;100.00
47260;BME280;32999;52.412;4.890;2023-03-21T09:10:24;101351.22;;;10.63;100.00
47260;BME280;32999;52.412;4.890;2023-03-21T09:15:27;101329.16;;;10.22;100.00
47260;BME280;32999;52.412;4.890;2023-03-21T09:20:29;101319.59;;;10.36;100.00
47260;BME280;32999;52.412;4.890;2023-03-21T09:25:31;101322.81;;;10.62;100.00
47260;BME280;32999;52.412;4.890;2023-03-21T09:30:35;101322.69;;;10.86;100.00
47260;BME280;32999;52.412;4.890;2023-03-21T09:35:37;101309.16;;;11.34;100.00
47260;BME280;32999;52.412;4.890;2023-03-21T09:40:47;101298.69;;;11.24;100.00
47260;BME280;32999;52.412;4.890;2023-03-21T09:45:56;101294.78;;;11.64;100.00
47260;BME280;32999;52.412;4.890;2023-03-21T09:51:00;101292.84;;;11.20;100.00
47260;BME280;32999;52.412;4.890;2023-03-21T09:56:01;101280.56;;;11.11;100.00
47260;BME280;32999;52.412;4.890;2023-03-21T10:01:08;101279.53;;;10.89;100.00
47260;BME280;32999;52.412;4.890;2023-03-21T10:06:21;101277.88;;;11.11;100.00
47260;BME280;32999;52.412;4.890;2023-03-21T10:11:30;101290.09;;;11.51;100.00
47260;BME280;32999;52.412;4.890;2023-03-21T10:16:34;101281.41;;;11.49;100.00
47260;BME280;32999;52.412;4.890;2023-03-21T10:21:38;101283.19;;;11.72;100.00
47260;BME280;32999;52.412;4.890;2023-03-21T10:26:43;101276.47;;;11.76;100.00
47260;BME280;32999;52.412;4.890;2023-03-21T10:31:47;101277.34;;;11.68;100.00
47260;BME280;32999;52.412;4.890;2023-03-21T10:36:49;101270.44;;;11.74;100.00
47260;BME280;32999;52.412;4.890;2023-03-21T10:41:51;101283.34;;;12.08;100.00
47260;BME280;32999;52.412;4.890;2023-03-21T10:46:54;101272.88;;;11.98;100.00
47260;BME280;32999;52.412;4.890;2023-03-21T10:51:57;101279.53;;;12.02;100.00
47260;BME280;32999;52.412;4.890;2023-03-21T10:57:00;101276.41;;;11.99;100.00
47260;BME280;32999;52.412;4.890;2023-03-21T11:02:06;101277.44;;;12.12;100.00
47260;BME280;32999;52.412;4.890;2023-03-21T11:07:11;101269.00;;;12.30;100.00
47260;BME280;32999;52.412;4.890;2023-03-21T11:12:15;101270.94;;;12.21;100.00
47260;BME280;32999;52.412;4.890;2023-03-21T11:17:22;101272.84;;;12.42;100.00
47260;BME280;32999;52.412;4.890;2023-03-21T11:22:24;101258.22;;;12.45;100.00
47260;BME280;32999;52.412;4.890;2023-03-21T11:27:27;101243.31;;;12.36;100.00
47260;BME280;32999;52.412;4.890;2023-03-21T11:32:32;101242.69;;;12.04;100.00
47260;BME280;32999;52.412;4.890;2023-03-21T11:37:36;101232.25;;;12.45;100.00
47260;BME280;32999;52.412;4.890;2023-03-21T11:42:39;101250.56;;;12.78;100.00
47260;BME280;32999;52.412;4.890;2023-03-21T11:47:43;101238.94;;;12.92;100.00
47260;BME280;32999;52.412;4.890;2023-03-21T11:52:48;101239.84;;;12.78;100.00
47260;BME280;32999;52.412;4.890;2023-03-21T11:57:56;101231.91;;;12.91;100.00
47260;BME280;32999;52.412;4.890;2023-03-21T12:03:07;101226.47;;;12.63;100.00
47260;BME280;32999;52.412;4.890;2023-03-21T12:08:18;101232.63;;;12.78;100.00
47260;BME280;32999;52.412;4.890;2023-03-21T12:13:31;101211.84;;;13.30;100.00
47260;BME280;32999;52.412;4.890;2023-03-21T12:23:57;101199.09;;;13.38;100.00
47260;BME280;32999;52.412;4.890;2023-03-21T12:29:08;101185.63;;;13.32;100.00
47260;BME280;32999;52.412;4.890;2023-03-21T12:34:18;101197.13;;;13.53;100.00
47260;BME280;32999;52.412;4.890;2023-03-21T12:39:29;101170.53;;;14.13;100.00
47260;BME280;32999;52.412;4.890;2023-03-21T12:44:32;101160.97;;;14.45;100.00
47260;BME280;32999;52.412;4.890;2023-03-21T12:49:34;101153.56;;;13.99;100.00
47260;BME280;32999;52.412;4.890;2023-03-21T12:54:40;101159.91;;;13.85;100.00
47260;BME280;32999;52.412;4.890;2023-03-21T12:59:43;101146.84;;;13.13;100.00
47260;BME280;32999;52.412;4.890;2023-03-21T13:04:50;101150.09;;;13.30;100.00
47260;BME280;32999;52.412;4.890;2023-03-21T13:09:58;101158.75;;;13.59;100.00
47260;BME280;32999;52.412;4.890;2023-03-21T13:15:04;101145.19;;;13.12;100.00
47260;BME280;32999;52.412;4.890;2023-03-21T13:20:11;101136.47;;;13.03;100.00
47260;BME280;32999;52.412;4.890;2023-03-21T13:25:21;101106.44;;;12.65;100.00
47260;BME280;32999;52.412;4.890;2023-03-21T13:30:23;101130.78;;;12.91;100.00
47260;BME280;32999;52.412;4.890;2023-03-21T13:35:31;101126.84;;;12.87;100.00
47260;BME280;32999;52.412;4.890;2023-03-21T13:40:36;101134.78;;;12.74;100.00
47260;BME280;32999;52.412;4.890;2023-03-21T13:45:43;101127.88;;;12.65;100.00
47260;BME280;32999;52.412;4.890;2023-03-21T13:50:51;101124.19;;;12.45;100.00
47260;BME280;32999;52.412;4.890;2023-03-21T13:56:08;101125.81;;;12.60;100.00
47260;BME280;32999;52.412;4.890;2023-03-21T14:01:16;101116.78;;;12.47;100.00
47260;BME280;32999;52.412;4.890;2023-03-21T14:06:20;101115.09;;;12.60;100.00
47260;BME280;32999;52.412;4.890;2023-03-21T14:11:28;101112.25;;;12.69;100.00
47260;BME280;32999;52.412;4.890;2023-03-21T14:16:33;101106.06;;;12.47;100.00
47260;BME280;32999;52.412;4.890;2023-03-21T14:21:45;101107.38;;;12.30;100.00
47260;BME280;32999;52.412;4.890;2023-03-21T14:26:49;101119.09;;;12.07;100.00
47260;BME280;32999;52.412;4.890;2023-03-21T14:31:51;101121.56;;;12.09;100.00
47260;BME280;32999;52.412;4.890;2023-03-21T14:36:53;101116.69;;;12.12;100.00
47260;BME280;32999;52.412;4.890;2023-03-21T14:42:00;101124.19;;;12.23;100.00
47260;BME280;32999;52.412;4.890;2023-03-21T14:47:03;101123.81;;;12.48;100.00
47260;BME280;32999;52.412;4.890;2023-03-21T14:52:06;101122.03;;;12.34;100.00
47260;BME280;32999;52.412;4.890;2023-03-21T14:57:13;101117.25;;;11.93;100.00
47260;BME280;32999;52.412;4.890;2023-03-21T15:02:16;101107.66;;;11.69;100.00
47260;BME280;32999;52.412;4.890;2023-03-21T15:07:23;101099.16;;;11.95;100.00
47260;BME280;32999;52.412;4.890;2023-03-21T15:12:26;101108.19;;;11.94;100.00
47260;BME280;32999;52.412;4.890;2023-03-21T15:17:27;101105.06;;;11.76;100.00
47260;BME280;32999;52.412;4.890;2023-03-21T15:22:30;101116.16;;;11.73;100.00
47260;BME280;32999;52.412;4.890;2023-03-21T15:27:36;101122.63;;;11.64;100.00
47260;BME280;32999;52.412;4.890;2023-03-21T15:32:38;101121.38;;;11.59;100.00
47260;BME280;32999;52.412;4.890;2023-03-21T15:37:39;101119.69;;;11.58;100.00
47260;BME280;32999;52.412;4.890;2023-03-21T15:42:42;101114.50;;;11.72;100.00
47260;BME280;32999;52.412;4.890;2023-03-21T15:47:51;101093.94;;;11.43;100.00
47260;BME280;32999;52.412;4.890;2023-03-21T15:52:53;101132.81;;;11.83;100.00
47260;BME280;32999;52.412;4.890;2023-03-21T15:57:59;101133.69;;;11.75;100.00
47260;BME280;32999;52.412;4.890;2023-03-21T16:03:04;101119.84;;;11.72;100.00
47260;BME280;32999;52.412;4.890;2023-03-21T16:08:17;101119.84;;;11.72;100.00
47260;BME280;32999;52.412;4.890;2023-03-21T16:13:20;101106.69;;;11.55;100.00
47260;BME280;32999;52.412;4.890;2023-03-21T16:18:23;101106.41;;;11.80;100.00
47260;BME280;32999;52.412;4.890;2023-03-21T16:23:24;101096.09;;;11.98;100.00
47260;BME280;32999;52.412;4.890;2023-03-21T16:28:28;101102.47;;;11.97;100.00
47260;BME280;32999;52.412;4.890;2023-03-21T16:33:29;101080.09;;;11.83;100.00
47260;BME280;32999;52.412;4.890;2023-03-21T16:38:31;101102.72;;;11.81;100.00
47260;BME280;32999;52.412;4.890;2023-03-21T16:43:34;101086.06;;;11.85;100.00
47260;BME280;32999;52.412;4.890;2023-03-21T16:48:38;101075.47;;;11.63;100.00
47260;BME280;32999;52.412;4.890;2023-03-21T16:53:39;101077.25;;;11.55;100.00
47260;BME280;32999;52.412;4.890;2023-03-21T16:58:42;101080.75;;;11.41;100.00
47260;BME280;32999;52.412;4.890;2023-03-21T17:03:44;101083.91;;;11.30;100.00
47260;BME280;32999;52.412;4.890;2023-03-21T17:08:46;101081.31;;;11.22;100.00
47260;BME280;32999;52.412;4.890;2023-03-21T17:13:50;101079.94;;;11.26;100.00
47260;BME280;32999;52.412;4.890;2023-03-21T17:18:51;101069.97;;;11.20;100.00
47260;BME280;32999;52.412;4.890;2023-03-21T17:23:53;101066.09;;;11.08;100.00
47260;BME280;32999;52.412;4.890;2023-03-21T17:28:56;101065.81;;;11.03;100.00
47260;BME280;32999;52.412;4.890;2023-03-21T17:34:00;101071.53;;;11.00;100.00
47260;BME280;32999;52.412;4.890;2023-03-21T17:39:16;101073.56;;;10.98;100.00
47260;BME280;32999;52.412;4.890;2023-03-21T17:49:51;101067.09;;;10.77;100.00
47260;BME280;32999;52.412;4.890;2023-03-21T17:54:55;101069.47;;;10.72;100.00
47260;BME280;32999;52.412;4.890;2023-03-21T17:59:56;101059.41;;;10.74;100.00
47260;BME280;32999;52.412;4.890;2023-03-21T18:04:59;101058.31;;;10.69;100.00
47260;BME280;32999;52.412;4.890;2023-03-21T18:10:01;101051.75;;;10.71;100.00
47260;BME280;32999;52.412;4.890;2023-03-21T18:15:03;101050.81;;;10.64;100.00
47260;BME280;32999;52.412;4.890;2023-03-21T18:20:07;101041.72;;;10.73;100.00
47260;BME280;32999;52.412;4.890;2023-03-21T18:25:09;101039.13;;;10.65;100.00
47260;BME280;32999;52.412;4.890;2023-03-21T18:30:13;101038.84;;;10.60;100.00
47260;BME280;32999;52.412;4.890;2023-03-21T18:35:17;101030.56;;;10.55;100.00
47260;BME280;32999;52.412;4.890;2023-03-21T18:40:18;101033.09;;;10.48;100.00
47260;BME280;32999;52.412;4.890;2023-03-21T18:45:23;101034.59;;;10.51;100.00
47260;BME280;32999;52.412;4.890;2023-03-21T18:50:27;101044.31;;;10.44;100.00
47260;BME280;32999;52.412;4.890;2023-03-21T18:55:28;101034.94;;;10.48;100.00
47260;BME280;32999;52.412;4.890;2023-03-21T19:00:30;101050.25;;;10.39;100.00
47260;BME280;32999;52.412;4.890;2023-03-21T19:05:32;101048.94;;;10.35;100.00
47260;BME280;32999;52.412;4.890;2023-03-21T19:10:34;101041.50;;;10.22;100.00
47260;BME280;32999;52.412;4.890;2023-03-21T19:15:36;101045.69;;;10.17;100.00
47260;BME280;32999;52.412;4.890;2023-03-21T19:20:42;101035.75;;;10.34;100.00
47260;BME280;32999;52.412;4.890;2023-03-21T19:25:44;101036.88;;;10.39;100.00
47260;BME280;32999;52.412;4.890;2023-03-21T19:30:45;101033.56;;;10.37;100.00
47260;BME280;32999;52.412;4.890;2023-03-21T19:35:49;101035.81;;;10.26;100.00
47260;BME280;32999;52.412;4.890;2023-03-21T19:40:50;100995.84;;;10.09;100.00
47260;BME280;32999;52.412;4.890;2023-03-21T19:45:52;101030.31;;;10.42;100.00
47260;BME280;32999;52.412;4.890;2023-03-21T19:50:57;101035.09;;;10.32;100.00
47260;BME280;32999;52.412;4.890;2023-03-21T19:56:01;101033.44;;;10.31;100.00
47260;BME280;32999;52.412;4.890;2023-03-21T20:01:02;101029.00;;;10.15;100.00
47260;BME280;32999;52.412;4.890;2023-03-21T20:06:06;101027.81;;;10.17;100.00
47260;BME280;32999;52.412;4.890;2023-03-21T20:11:08;101028.81;;;10.25;100.00
47260;BME280;32999;52.412;4.890;2023-03-21T20:16:11;101024.88;;;10.12;100.00
47260;BME280;32999;52.412;4.890;2023-03-21T20:21:14;101022.88;;;10.14;100.00
47260;BME280;32999;52.412;4.890;2023-03-21T20:26:16;101024.22;;;10.10;100.00
47260;BME280;32999;52.412;4.890;2023-03-21T20:31:18;101016.88;;;10.12;100.00
47260;BME280;32999;52.412;4.890;2023-03-21T20:36:20;101009.69;;;10.13;100.00
47260;BME280;32999;52.412;4.890;2023-03-21T20:41:23;100994.97;;;9.94;100.00
47260;BME280;32999;52.412;4.890;2023-03-21T20:46:24;100995.25;;;9.99;100.00
47260;BME280;32999;52.412;4.890;2023-03-21T20:51:27;100999.28;;;9.95;100.00
47260;BME280;32999;52.412;4.890;2023-03-21T20:56:29;101003.09;;;10.01;100.00
47260;BME280;32999;52.412;4.890;2023-03-21T21:01:30;100993.00;;;10.11;100.00
47260;BME280;32999;52.412;4.890;2023-03-21T21:06:33;100992.22;;;10.02;100.00
47260;BME280;32999;52.412;4.890;2023-03-21T21:11:35;100981.91;;;9.99;100.00
47260;BME280;32999;52.412;4.890;2023-03-21T21:16:37;100977.88;;;10.03;100.00
47260;BME280;32999;52.412;4.890;2023-03-21T21:21:39;100988.72;;;10.02;100.00
47260;BME280;32999;52.412;4.890;2023-03-21T21:26:41;100982.03;;;9.83;100.00
47260;BME280;32999;52.412;4.890;2023-03-21T21:31:45;100976.19;;;9.87;100.00
47260;BME280;32999;52.412;4.890;2023-03-21T21:36:49;100974.59;;;9.93;100.00
47260;BME280;32999;52.412;4.890;2023-03-21T21:41:51;100966.59;;;9.93;100.00
47260;BME280;32999;52.412;4.890;2023-03-21T21:46:52;100963.22;;;9.99;100.00
47260;BME280;32999;52.412;4.890;2023-03-21T21:51:55;100955.63;;;10.11;100.00
47260;BME280;32999;52.412;4.890;2023-03-21T21:56:58;100950.81;;;10.06;100.00
47260;BME280;32999;52.412;4.890;2023-03-21T22:02:00;100950.47;;;10.09;100.00
47260;BME280;32999;52.412;4.890;2023-03-21T22:07:03;100948.44;;;10.11;100.00
47260;BME280;32999;52.412;4.890;2023-03-21T22:12:05;100954.44;;;10.13;100.00
47260;BME280;32999;52.412;4.890;2023-03-21T22:17:06;100943.22;;;9.95;100.00
47260;BME280;32999;52.412;4.890;2023-03-21T22:22:09;100902.69;;;9.77;100.00
47260;BME280;32999;52.412;4.890;2023-03-21T22:27:11;100944.78;;;9.89;100.00
47260;BME280;32999;52.412;4.890;2023-03-21T22:32:12;100936.97;;;9.88;100.00
47260;BME280;32999;52.412;4.890;2023-03-21T22:37:15;100929.31;;;9.85;100.00
47260;BME280;32999;52.412;4.890;2023-03-21T22:42:17;100930.66;;;9.81;100.00
47260;BME280;32999;52.412;4.890;2023-03-21T22:47:19;100931.84;;;9.78;100.00
47260;BME280;32999;52.412;4.890;2023-03-21T22:52:22;100928.75;;;9.67;100.00
47260;BME280;32999;52.412;4.890;2023-03-21T22:57:24;100923.44;;;9.67;100.00
47260;BME280;32999;52.412;4.890;2023-03-21T23:02:25;100927.94;;;9.89;100.00
47260;BME280;32999;52.412;4.890;2023-03-21T23:07:28;100922.59;;;9.89;100.00
47260;BME280;32999;52.412;4.890;2023-03-21T23:12:30;100916.16;;;9.98;100.00
47260;BME280;32999;52.412;4.890;2023-03-21T23:17:32;100915.88;;;9.93;100.00
47260;BME280;32999;52.412;4.890;2023-03-21T23:22:36;100915.59;;;9.88;100.00
47260;BME280;32999;52.412;4.890;2023-03-21T23:27:37;100923.22;;;9.91;100.00
47260;BME280;32999;52.412;4.890;2023-03-21T23:32:38;100931.25;;;9.91;100.00
47260;BME280;32999;52.412;4.890;2023-03-21T23:37:41;100917.28;;;9.89;100.00
47260;BME280;32999;52.412;4.890;2023-03-21T23:42:51;100915.00;;;9.78;100.00
47260;BME280;32999;52.412;4.890;2023-03-21T23:47:52;100904.75;;;9.67;100.00
47260;BME280;32999;52.412;4.890;2023-03-21T23:52:55;100897.22;;;9.70;100.00
47260;BME280;32999;52.412;4.890;2023-03-21T23:57:57;100909.31;;;9.81;100.00
